sensor_id;sensor_type;location;lat;lon;timestamp;P1;durP1;ratioP1;P2;durP2;ratioP2
75916;SDS011;64595;50.148;14.334;2024-01-30T00:00:42;53.80;;;18.55;;
75916;SDS011;64595;50.148;14.334;2024-01-30T00:03:08;53.33;;;18.13;;
75916;SDS011;64595;50.148;14.334;2024-01-30T00:05:33;46.67;;;17.58;;
75916;SDS011;64595;50.148;14.334;2024-01-30T00:07:59;44.92;;;16.58;;
75916;SDS011;64595;50.148;14.334;2024-01-30T00:10:33;36.90;;;17.73;;
75916;SDS011;64595;50.148;14.334;2024-01-30T00:12:59;41.17;;;14.45;;
75916;SDS011;64595;50.148;14.334;2024-01-30T00:15:26;44.03;;;16.40;;
75916;SDS011;64595;50.148;14.334;2024-01-30T00:17:51;42.50;;;16.15;;
75916;SDS011;64595;50.148;14.334;2024-01-30T00:20:17;41.08;;;16.58;;
75916;SDS011;64595;50.148;14.334;2024-01-30T00:22:42;38.85;;;16.25;;
75916;SDS011;64595;50.148;14.334;2024-01-30T00:25:08;43.95;;;17.80;;
75916;SDS011;64595;50.148;14.334;2024-01-30T00:27:33;53.03;;;18.35;;
75916;SDS011;64595;50.148;14.334;2024-01-30T00:29:59;42.15;;;15.63;;
75916;SDS011;64595;50.148;14.334;2024-01-30T00:32:25;53.53;;;17.13;;
75916;SDS011;64595;50.148;14.334;2024-01-30T00:34:51;48.38;;;18.52;;
75916;SDS011;64595;50.148;14.334;2024-01-30T00:37:16;50.08;;;18.35;;
75916;SDS011;64595;50.148;14.334;2024-01-30T00:39:42;55.78;;;18.98;;
75916;SDS011;64595;50.148;14.334;2024-01-30T00:42:07;48.17;;;16.85;;
75916;SDS011;64595;50.148;14.334;2024-01-30T00:44:34;46.00;;;16.60;;
75916;SDS011;64595;50.148;14.334;2024-01-30T00:47:00;43.72;;;16.63;;
75916;SDS011;64595;50.148;14.334;2024-01-30T00:49:27;43.67;;;17.08;;
75916;SDS011;64595;50.148;14.334;2024-01-30T00:51:52;44.97;;;16.83;;
75916;SDS011;64595;50.148;14.334;2024-01-30T00:54:18;46.63;;;15.93;;
75916;SDS011;64595;50.148;14.334;2024-01-30T00:56:43;48.47;;;18.10;;
75916;SDS011;64595;50.148;14.334;2024-01-30T00:59:08;52.10;;;17.75;;
75916;SDS011;64595;50.148;14.334;2024-01-30T01:01:34;66.00;;;18.27;;
75916;SDS011;64595;50.148;14.334;2024-01-30T01:03:59;44.88;;;15.48;;
75916;SDS011;64595;50.148;14.334;2024-01-30T01:06:26;48.88;;;17.10;;
75916;SDS011;64595;50.148;14.334;2024-01-30T01:08:52;56.03;;;16.50;;
75916;SDS011;64595;50.148;14.334;2024-01-30T01:11:17;49.08;;;17.30;;
75916;SDS011;64595;50.148;14.334;2024-01-30T01:13:42;57.88;;;17.77;;
75916;SDS011;64595;50.148;14.334;2024-01-30T01:16:08;52.33;;;17.33;;
75916;SDS011;64595;50.148;14.334;2024-01-30T01:18:33;50.28;;;18.30;;
75916;SDS011;64595;50.148;14.334;2024-01-30T01:20:59;58.50;;;18.90;;
75916;SDS011;64595;50.148;14.334;2024-01-30T01:23:26;50.15;;;20.67;;
75916;SDS011;64595;50.148;14.334;2024-01-30T01:25:51;50.17;;;17.77;;
75916;SDS011;64595;50.148;14.334;2024-01-30T01:28:17;51.35;;;19.40;;
75916;SDS011;64595;50.148;14.334;2024-01-30T01:30:42;50.80;;;17.50;;
75916;SDS011;64595;50.148;14.334;2024-01-30T01:33:08;63.75;;;18.60;;
75916;SDS011;64595;50.148;14.334;2024-01-30T01:35:33;61.95;;;17.75;;
75916;SDS011;64595;50.148;14.334;2024-01-30T01:37:59;38.65;;;16.67;;
75916;SDS011;64595;50.148;14.334;2024-01-30T01:40:25;60.08;;;19.48;;
75916;SDS011;64595;50.148;14.334;2024-01-30T01:42:51;50.25;;;17.90;;
75916;SDS011;64595;50.148;14.334;2024-01-30T01:45:17;53.95;;;17.70;;
75916;SDS011;64595;50.148;14.334;2024-01-30T01:47:43;48.45;;;17.30;;
75916;SDS011;64595;50.148;14.334;2024-01-30T01:50:09;40.53;;;16.73;;
75916;SDS011;64595;50.148;14.334;2024-01-30T01:52:34;54.08;;;15.70;;
75916;SDS011;64595;50.148;14.334;2024-01-30T01:55:00;46.45;;;15.65;;
75916;SDS011;64595;50.148;14.334;2024-01-30T01:57:27;38.63;;;16.67;;
75916;SDS011;64595;50.148;14.334;2024-01-30T01:59:52;56.40;;;17.63;;
75916;SDS011;64595;50.148;14.334;2024-01-30T02:02:18;39.97;;;14.93;;
75916;SDS011;64595;50.148;14.334;2024-01-30T02:04:44;40.55;;;16.67;;
75916;SDS011;64595;50.148;14.334;2024-01-30T02:07:12;40.88;;;16.38;;
75916;SDS011;64595;50.148;14.334;2024-01-30T02:09:38;41.03;;;17.35;;
75916;SDS011;64595;50.148;14.334;2024-01-30T02:12:03;42.22;;;15.88;;
75916;SDS011;64595;50.148;14.334;2024-01-30T02:14:31;40.00;;;17.05;;
75916;SDS011;64595;50.148;14.334;2024-01-30T02:16:56;39.15;;;15.07;;
75916;SDS011;64595;50.148;14.334;2024-01-30T02:19:22;41.42;;;15.57;;
75916;SDS011;64595;50.148;14.334;2024-01-30T02:21:49;39.13;;;15.88;;
75916;SDS011;64595;50.148;14.334;2024-01-30T02:24:15;40.08;;;16.77;;
75916;SDS011;64595;50.148;14.334;2024-01-30T02:26:40;41.10;;;16.00;;
75916;SDS011;64595;50.148;14.334;2024-01-30T02:29:05;46.70;;;16.83;;
75916;SDS011;64595;50.148;14.334;2024-01-30T02:31:31;46.90;;;16.23;;
75916;SDS011;64595;50.148;14.334;2024-01-30T02:33:56;42.83;;;17.55;;
75916;SDS011;64595;50.148;14.334;2024-01-30T02:38:51;35.50;;;14.57;;
75916;SDS011;64595;50.148;14.334;2024-01-30T02:41:17;38.13;;;14.70;;
75916;SDS011;64595;50.148;14.334;2024-01-30T02:43:42;49.58;;;16.70;;
75916;SDS011;64595;50.148;14.334;2024-01-30T02:46:08;39.67;;;18.05;;
75916;SDS011;64595;50.148;14.334;2024-01-30T02:48:33;44.85;;;17.50;;
75916;SDS011;64595;50.148;14.334;2024-01-30T02:50:58;45.67;;;17.75;;
75916;SDS011;64595;50.148;14.334;2024-01-30T02:53:24;37.63;;;16.23;;
75916;SDS011;64595;50.148;14.334;2024-01-30T02:55:51;43.78;;;14.68;;
75916;SDS011;64595;50.148;14.334;2024-01-30T02:58:16;38.72;;;14.18;;
75916;SDS011;64595;50.148;14.334;2024-01-30T03:00:41;39.50;;;13.85;;
75916;SDS011;64595;50.148;14.334;2024-01-30T03:03:07;41.05;;;14.07;;
75916;SDS011;64595;50.148;14.334;2024-01-30T03:05:32;34.65;;;14.70;;
75916;SDS011;64595;50.148;14.334;2024-01-30T03:07:58;30.00;;;13.32;;
75916;SDS011;64595;50.148;14.334;2024-01-30T03:10:23;44.65;;;15.82;;
75916;SDS011;64595;50.148;14.334;2024-01-30T03:12:50;30.70;;;13.93;;
75916;SDS011;64595;50.148;14.334;2024-01-30T03:15:16;36.28;;;14.25;;
75916;SDS011;64595;50.148;14.334;2024-01-30T03:17:41;42.88;;;14.77;;
75916;SDS011;64595;50.148;14.334;2024-01-30T03:20:07;36.70;;;14.82;;
75916;SDS011;64595;50.148;14.334;2024-01-30T03:22:33;30.05;;;14.50;;
75916;SDS011;64595;50.148;14.334;2024-01-30T03:24:58;37.85;;;14.90;;
75916;SDS011;64595;50.148;14.334;2024-01-30T03:27:23;29.30;;;13.60;;
75916;SDS011;64595;50.148;14.334;2024-01-30T03:29:50;36.53;;;14.00;;
75916;SDS011;64595;50.148;14.334;2024-01-30T03:32:16;32.15;;;13.88;;
75916;SDS011;64595;50.148;14.334;2024-01-30T03:34:41;46.67;;;14.98;;
75916;SDS011;64595;50.148;14.334;2024-01-30T03:37:07;39.70;;;13.77;;
75916;SDS011;64595;50.148;14.334;2024-01-30T03:39:32;37.28;;;13.50;;
75916;SDS011;64595;50.148;14.334;2024-01-30T03:41:57;43.72;;;13.20;;
75916;SDS011;64595;50.148;14.334;2024-01-30T03:44:23;35.88;;;14.10;;
75916;SDS011;64595;50.148;14.334;2024-01-30T03:46:50;44.05;;;14.75;;
75916;SDS011;64595;50.148;14.334;2024-01-30T03:49:15;44.75;;;15.00;;
75916;SDS011;64595;50.148;14.334;2024-01-30T03:51:41;73.65;;;15.50;;
75916;SDS011;64595;50.148;14.334;2024-01-30T03:54:06;32.85;;;13.30;;
75916;SDS011;64595;50.148;14.334;2024-01-30T03:56:32;35.85;;;13.57;;
75916;SDS011;64595;50.148;14.334;2024-01-30T03:58:57;32.28;;;13.85;;
75916;SDS011;64595;50.148;14.334;2024-01-30T04:01:23;26.83;;;10.93;;
75916;SDS011;64595;50.148;14.334;2024-01-30T04:03:50;37.95;;;13.63;;
75916;SDS011;64595;50.148;14.334;2024-01-30T04:06:15;41.80;;;13.77;;
75916;SDS011;64595;50.148;14.334;2024-01-30T04:08:40;41.90;;;14.40;;
75916;SDS011;64595;50.148;14.334;2024-01-30T04:11:06;42.47;;;15.27;;
75916;SDS011;64595;50.148;14.334;2024-01-30T04:13:32;55.85;;;16.60;;
75916;SDS011;64595;50.148;14.334;2024-01-30T04:15:58;50.67;;;16.17;;
75916;SDS011;64595;50.148;14.334;2024-01-30T04:18:24;41.05;;;15.23;;
75916;SDS011;64595;50.148;14.334;2024-01-30T04:20:51;45.65;;;15.68;;
75916;SDS011;64595;50.148;14.334;2024-01-30T04:23:16;46.60;;;15.40;;
75916;SDS011;64595;50.148;14.334;2024-01-30T04:25:41;40.85;;;16.20;;
75916;SDS011;64595;50.148;14.334;2024-01-30T04:28:07;43.22;;;15.00;;
75916;SDS011;64595;50.148;14.334;2024-01-30T04:30:32;40.15;;;13.32;;
75916;SDS011;64595;50.148;14.334;2024-01-30T04:32:58;46.22;;;14.30;;
75916;SDS011;64595;50.148;14.334;2024-01-30T04:35:23;41.92;;;14.07;;
75916;SDS011;64595;50.148;14.334;2024-01-30T04:37:51;35.88;;;14.65;;
75916;SDS011;64595;50.148;14.334;2024-01-30T04:40:17;34.35;;;14.10;;
75916;SDS011;64595;50.148;14.334;2024-01-30T04:42:42;32.67;;;14.23;;
75916;SDS011;64595;50.148;14.334;2024-01-30T04:45:08;36.00;;;13.50;;
75916;SDS011;64595;50.148;14.334;2024-01-30T04:47:34;32.20;;;14.07;;
75916;SDS011;64595;50.148;14.334;2024-01-30T04:50:00;33.58;;;12.63;;
75916;SDS011;64595;50.148;14.334;2024-01-30T04:52:26;42.42;;;13.32;;
75916;SDS011;64595;50.148;14.334;2024-01-30T04:54:53;37.35;;;14.23;;
75916;SDS011;64595;50.148;14.334;2024-01-30T04:57:18;26.58;;;11.43;;
75916;SDS011;64595;50.148;14.334;2024-01-30T04:59:44;24.98;;;13.23;;
75916;SDS011;64595;50.148;14.334;2024-01-30T05:02:09;32.20;;;12.85;;
75916;SDS011;64595;50.148;14.334;2024-01-30T05:04:35;31.35;;;14.57;;
75916;SDS011;64595;50.148;14.334;2024-01-30T05:07:00;27.25;;;13.38;;
75916;SDS011;64595;50.148;14.334;2024-01-30T05:09:26;29.60;;;14.90;;
75916;SDS011;64595;50.148;14.334;2024-01-30T05:11:52;33.10;;;14.15;;
75916;SDS011;64595;50.148;14.334;2024-01-30T05:14:18;34.58;;;14.52;;
75916;SDS011;64595;50.148;14.334;2024-01-30T05:16:43;35.13;;;13.15;;
75916;SDS011;64595;50.148;14.334;2024-01-30T05:19:09;30.70;;;14.15;;
75916;SDS011;64595;50.148;14.334;2024-01-30T05:21:34;33.75;;;14.98;;
75916;SDS011;64595;50.148;14.334;2024-01-30T05:24:00;28.95;;;14.27;;
75916;SDS011;64595;50.148;14.334;2024-01-30T05:26:25;37.15;;;15.20;;
75916;SDS011;64595;50.148;14.334;2024-01-30T05:28:52;36.88;;;16.88;;
75916;SDS011;64595;50.148;14.334;2024-01-30T05:31:17;36.60;;;14.82;;
75916;SDS011;64595;50.148;14.334;2024-01-30T05:33:43;37.53;;;14.60;;
75916;SDS011;64595;50.148;14.334;2024-01-30T05:36:11;42.72;;;15.50;;
75916;SDS011;64595;50.148;14.334;2024-01-30T05:38:37;38.60;;;15.52;;
75916;SDS011;64595;50.148;14.334;2024-01-30T05:41:02;40.97;;;16.45;;
75916;SDS011;64595;50.148;14.334;2024-01-30T05:43:28;37.22;;;15.10;;
75916;SDS011;64595;50.148;14.334;2024-01-30T05:45:55;35.22;;;14.48;;
75916;SDS011;64595;50.148;14.334;2024-01-30T05:48:21;42.90;;;15.73;;
75916;SDS011;64595;50.148;14.334;2024-01-30T05:50:46;36.03;;;15.73;;
75916;SDS011;64595;50.148;14.334;2024-01-30T05:53:11;41.80;;;17.02;;
75916;SDS011;64595;50.148;14.334;2024-01-30T05:55:37;44.80;;;14.75;;
75916;SDS011;64595;50.148;14.334;2024-01-30T05:58:02;35.40;;;14.07;;
75916;SDS011;64595;50.148;14.334;2024-01-30T06:00:28;22.98;;;12.02;;
75916;SDS011;64595;50.148;14.334;2024-01-30T06:02:55;33.40;;;13.00;;
75916;SDS011;64595;50.148;14.334;2024-01-30T06:05:20;35.05;;;14.05;;
75916;SDS011;64595;50.148;14.334;2024-01-30T06:07:46;33.75;;;14.20;;
75916;SDS011;64595;50.148;14.334;2024-01-30T06:10:11;44.38;;;14.75;;
75916;SDS011;64595;50.148;14.334;2024-01-30T06:12:37;36.80;;;14.02;;
75916;SDS011;64595;50.148;14.334;2024-01-30T06:15:03;37.58;;;14.48;;
75916;SDS011;64595;50.148;14.334;2024-01-30T06:17:29;36.83;;;13.70;;
75916;SDS011;64595;50.148;14.334;2024-01-30T06:19:56;30.17;;;12.75;;
75916;SDS011;64595;50.148;14.334;2024-01-30T06:22:21;37.15;;;12.80;;
75916;SDS011;64595;50.148;14.334;2024-01-30T06:24:47;33.90;;;13.43;;
75916;SDS011;64595;50.148;14.334;2024-01-30T06:27:12;36.35;;;14.98;;
75916;SDS011;64595;50.148;14.334;2024-01-30T06:29:38;33.55;;;13.88;;
75916;SDS011;64595;50.148;14.334;2024-01-30T06:32:03;37.00;;;14.65;;
75916;SDS011;64595;50.148;14.334;2024-01-30T06:34:29;31.98;;;14.45;;
75916;SDS011;64595;50.148;14.334;2024-01-30T06:36:56;38.58;;;15.85;;
75916;SDS011;64595;50.148;14.334;2024-01-30T06:39:22;41.97;;;16.13;;
75916;SDS011;64595;50.148;14.334;2024-01-30T06:41:47;43.42;;;15.05;;
75916;SDS011;64595;50.148;14.334;2024-01-30T06:44:13;37.90;;;14.70;;
75916;SDS011;64595;50.148;14.334;2024-01-30T06:46:38;45.67;;;16.42;;
75916;SDS011;64595;50.148;14.334;2024-01-30T06:49:04;50.78;;;16.70;;
75916;SDS011;64595;50.148;14.334;2024-01-30T06:51:29;43.45;;;14.57;;
75916;SDS011;64595;50.148;14.334;2024-01-30T06:53:56;34.15;;;16.88;;
75916;SDS011;64595;50.148;14.334;2024-01-30T06:56:22;37.38;;;15.25;;
75916;SDS011;64595;50.148;14.334;2024-01-30T06:58:47;49.60;;;15.75;;
75916;SDS011;64595;50.148;14.334;2024-01-30T07:01:12;43.28;;;14.65;;
75916;SDS011;64595;50.148;14.334;2024-01-30T07:03:38;38.95;;;15.65;;
75916;SDS011;64595;50.148;14.334;2024-01-30T07:06:03;48.72;;;16.67;;
75916;SDS011;64595;50.148;14.334;2024-01-30T07:08:29;42.35;;;16.73;;
75916;SDS011;64595;50.148;14.334;2024-01-30T07:10:56;46.83;;;15.75;;
75916;SDS011;64595;50.148;14.334;2024-01-30T07:13:21;42.97;;;16.85;;
75916;SDS011;64595;50.148;14.334;2024-01-30T07:15:47;49.25;;;20.33;;
75916;SDS011;64595;50.148;14.334;2024-01-30T07:18:12;48.33;;;17.80;;
75916;SDS011;64595;50.148;14.334;2024-01-30T07:20:38;68.95;;;23.92;;
75916;SDS011;64595;50.148;14.334;2024-01-30T07:23:03;112.18;;;42.45;;
75916;SDS011;64595;50.148;14.334;2024-01-30T07:25:29;91.00;;;34.40;;
75916;SDS011;64595;50.148;14.334;2024-01-30T07:27:56;86.05;;;31.70;;
75916;SDS011;64595;50.148;14.334;2024-01-30T07:30:21;52.38;;;21.00;;
75916;SDS011;64595;50.148;14.334;2024-01-30T07:32:47;59.35;;;22.90;;
75916;SDS011;64595;50.148;14.334;2024-01-30T07:35:12;49.38;;;18.33;;
75916;SDS011;64595;50.148;14.334;2024-01-30T07:37:38;56.33;;;21.20;;
75916;SDS011;64595;50.148;14.334;2024-01-30T07:40:04;52.65;;;16.77;;
75916;SDS011;64595;50.148;14.334;2024-01-30T07:42:30;43.30;;;16.15;;
75916;SDS011;64595;50.148;14.334;2024-01-30T07:44:57;38.55;;;15.68;;
75916;SDS011;64595;50.148;14.334;2024-01-30T07:47:22;49.00;;;18.45;;
75916;SDS011;64595;50.148;14.334;2024-01-30T07:49:48;45.10;;;17.08;;
75916;SDS011;64595;50.148;14.334;2024-01-30T07:52:13;49.00;;;20.08;;
75916;SDS011;64595;50.148;14.334;2024-01-30T07:57:42;41.17;;;14.93;;
75916;SDS011;64595;50.148;14.334;2024-01-30T08:00:09;46.67;;;16.23;;
75916;SDS011;64595;50.148;14.334;2024-01-30T08:02:35;42.55;;;15.85;;
75916;SDS011;64595;50.148;14.334;2024-01-30T08:05:01;45.08;;;15.55;;
75916;SDS011;64595;50.148;14.334;2024-01-30T08:07:26;49.30;;;19.08;;
75916;SDS011;64595;50.148;14.334;2024-01-30T08:09:52;43.95;;;17.25;;
75916;SDS011;64595;50.148;14.334;2024-01-30T08:12:17;44.83;;;18.33;;
75916;SDS011;64595;50.148;14.334;2024-01-30T08:14:42;49.13;;;17.15;;
75916;SDS011;64595;50.148;14.334;2024-01-30T08:17:09;38.58;;;16.45;;
75916;SDS011;64595;50.148;14.334;2024-01-30T08:19:35;50.50;;;16.80;;
75916;SDS011;64595;50.148;14.334;2024-01-30T08:22:00;46.40;;;17.35;;
75916;SDS011;64595;50.148;14.334;2024-01-30T08:24:26;45.67;;;17.98;;
75916;SDS011;64595;50.148;14.334;2024-01-30T08:26:51;42.80;;;16.77;;
75916;SDS011;64595;50.148;14.334;2024-01-30T08:29:17;39.33;;;15.80;;
75916;SDS011;64595;50.148;14.334;2024-01-30T08:31:42;49.35;;;16.15;;
75916;SDS011;64595;50.148;14.334;2024-01-30T08:34:09;46.95;;;17.23;;
75916;SDS011;64595;50.148;14.334;2024-01-30T08:36:34;46.88;;;15.85;;
75916;SDS011;64595;50.148;14.334;2024-01-30T08:39:00;46.38;;;17.00;;
75916;SDS011;64595;50.148;14.334;2024-01-30T08:41:25;38.80;;;15.50;;
75916;SDS011;64595;50.148;14.334;2024-01-30T08:43:51;43.05;;;17.08;;
75916;SDS011;64595;50.148;14.334;2024-01-30T08:46:17;41.35;;;17.83;;
75916;SDS011;64595;50.148;14.334;2024-01-30T08:48:43;55.67;;;19.58;;
75916;SDS011;64595;50.148;14.334;2024-01-30T08:51:10;39.30;;;17.30;;
75916;SDS011;64595;50.148;14.334;2024-01-30T08:53:35;41.22;;;16.95;;
75916;SDS011;64595;50.148;14.334;2024-01-30T08:56:01;38.35;;;15.90;;
75916;SDS011;64595;50.148;14.334;2024-01-30T08:58:27;41.50;;;17.00;;
75916;SDS011;64595;50.148;14.334;2024-01-30T09:00:52;42.25;;;16.85;;
75916;SDS011;64595;50.148;14.334;2024-01-30T09:03:17;32.30;;;13.13;;
75916;SDS011;64595;50.148;14.334;2024-01-30T09:05:43;38.65;;;16.08;;
75916;SDS011;64595;50.148;14.334;2024-01-30T09:08:10;36.42;;;15.48;;
75916;SDS011;64595;50.148;14.334;2024-01-30T09:10:35;39.83;;;16.20;;
75916;SDS011;64595;50.148;14.334;2024-01-30T09:13:01;43.88;;;18.90;;
75916;SDS011;64595;50.148;14.334;2024-01-30T09:15:26;49.33;;;18.95;;
75916;SDS011;64595;50.148;14.334;2024-01-30T09:17:52;42.45;;;18.38;;
75916;SDS011;64595;50.148;14.334;2024-01-30T09:20:17;38.92;;;17.90;;
75916;SDS011;64595;50.148;14.334;2024-01-30T09:22:42;42.47;;;18.10;;
75916;SDS011;64595;50.148;14.334;2024-01-30T09:25:09;42.67;;;18.95;;
75916;SDS011;64595;50.148;14.334;2024-01-30T09:27:35;36.28;;;16.83;;
75916;SDS011;64595;50.148;14.334;2024-01-30T09:30:00;41.97;;;17.92;;
75916;SDS011;64595;50.148;14.334;2024-01-30T09:32:26;39.42;;;17.63;;
75916;SDS011;64595;50.148;14.334;2024-01-30T09:34:51;37.63;;;14.13;;
75916;SDS011;64595;50.148;14.334;2024-01-30T09:37:17;43.22;;;18.45;;
75916;SDS011;64595;50.148;14.334;2024-01-30T09:39:42;37.90;;;16.48;;
75916;SDS011;64595;50.148;14.334;2024-01-30T09:42:11;41.97;;;18.23;;
75916;SDS011;64595;50.148;14.334;2024-01-30T09:44:43;44.00;;;18.67;;
75916;SDS011;64595;50.148;14.334;2024-01-30T09:47:09;43.10;;;19.23;;
75916;SDS011;64595;50.148;14.334;2024-01-30T09:49:35;48.00;;;18.88;;
75916;SDS011;64595;50.148;14.334;2024-01-30T09:52:00;39.33;;;16.75;;
75916;SDS011;64595;50.148;14.334;2024-01-30T09:54:26;40.90;;;17.17;;
75916;SDS011;64595;50.148;14.334;2024-01-30T09:56:51;47.38;;;20.52;;
75916;SDS011;64595;50.148;14.334;2024-01-30T09:59:18;45.42;;;19.88;;
75916;SDS011;64595;50.148;14.334;2024-01-30T10:01:43;44.50;;;17.77;;
75916;SDS011;64595;50.148;14.334;2024-01-30T10:04:09;40.90;;;18.85;;
75916;SDS011;64595;50.148;14.334;2024-01-30T10:06:35;41.22;;;18.92;;
75916;SDS011;64595;50.148;14.334;2024-01-30T10:09:00;39.17;;;18.50;;
75916;SDS011;64595;50.148;14.334;2024-01-30T10:11:26;45.10;;;20.08;;
75916;SDS011;64595;50.148;14.334;2024-01-30T10:13:51;48.53;;;20.42;;
75916;SDS011;64595;50.148;14.334;2024-01-30T10:16:18;42.10;;;19.02;;
75916;SDS011;64595;50.148;14.334;2024-01-30T10:18:44;46.13;;;21.95;;
75916;SDS011;64595;50.148;14.334;2024-01-30T10:21:09;47.90;;;19.38;;
75916;SDS011;64595;50.148;14.334;2024-01-30T10:23:36;39.75;;;19.55;;
75916;SDS011;64595;50.148;14.334;2024-01-30T10:26:08;48.25;;;19.92;;
75916;SDS011;64595;50.148;14.334;2024-01-30T10:28:37;43.92;;;20.20;;
75916;SDS011;64595;50.148;14.334;2024-01-30T10:31:05;50.40;;;21.27;;
75916;SDS011;64595;50.148;14.334;2024-01-30T10:33:34;43.40;;;19.05;;
75916;SDS011;64595;50.148;14.334;2024-01-30T10:36:00;43.70;;;20.17;;
75916;SDS011;64595;50.148;14.334;2024-01-30T10:38:27;46.08;;;19.77;;
75916;SDS011;64595;50.148;14.334;2024-01-30T10:40:54;41.90;;;20.02;;
75916;SDS011;64595;50.148;14.334;2024-01-30T10:43:21;45.15;;;20.92;;
75916;SDS011;64595;50.148;14.334;2024-01-30T10:45:48;45.70;;;22.00;;
75916;SDS011;64595;50.148;14.334;2024-01-30T10:48:14;46.00;;;20.60;;
75916;SDS011;64595;50.148;14.334;2024-01-30T10:50:49;47.03;;;21.73;;
75916;SDS011;64595;50.148;14.334;2024-01-30T10:53:15;45.17;;;20.65;;
75916;SDS011;64595;50.148;14.334;2024-01-30T10:55:42;34.35;;;17.33;;
75916;SDS011;64595;50.148;14.334;2024-01-30T10:58:08;40.97;;;18.63;;
75916;SDS011;64595;50.148;14.334;2024-01-30T11:00:34;42.83;;;19.15;;
75916;SDS011;64595;50.148;14.334;2024-01-30T11:02:59;43.15;;;19.80;;
75916;SDS011;64595;50.148;14.334;2024-01-30T11:05:27;47.05;;;23.73;;
75916;SDS011;64595;50.148;14.334;2024-01-30T11:07:55;54.83;;;21.08;;
75916;SDS011;64595;50.148;14.334;2024-01-30T11:10:25;42.72;;;20.40;;
75916;SDS011;64595;50.148;14.334;2024-01-30T11:12:54;42.22;;;20.55;;
75916;SDS011;64595;50.148;14.334;2024-01-30T11:15:21;41.33;;;20.45;;
75916;SDS011;64595;50.148;14.334;2024-01-30T11:17:50;40.80;;;18.17;;
75916;SDS011;64595;50.148;14.334;2024-01-30T11:20:18;47.05;;;22.15;;
75916;SDS011;64595;50.148;14.334;2024-01-30T11:22:44;44.40;;;20.85;;
75916;SDS011;64595;50.148;14.334;2024-01-30T11:25:13;46.50;;;19.85;;
75916;SDS011;64595;50.148;14.334;2024-01-30T11:27:41;40.58;;;19.38;;
75916;SDS011;64595;50.148;14.334;2024-01-30T11:30:07;50.90;;;20.95;;
75916;SDS011;64595;50.148;14.334;2024-01-30T11:32:33;36.50;;;17.13;;
75916;SDS011;64595;50.148;14.334;2024-01-30T11:34:59;42.38;;;20.52;;
75916;SDS011;64595;50.148;14.334;2024-01-30T11:37:25;41.63;;;17.80;;
75916;SDS011;64595;50.148;14.334;2024-01-30T11:39:50;42.58;;;19.65;;
75916;SDS011;64595;50.148;14.334;2024-01-30T11:42:17;39.55;;;19.75;;
75916;SDS011;64595;50.148;14.334;2024-01-30T11:44:46;41.25;;;19.75;;
75916;SDS011;64595;50.148;14.334;2024-01-30T11:47:12;39.50;;;18.27;;
75916;SDS011;64595;50.148;14.334;2024-01-30T11:49:37;45.15;;;19.73;;
75916;SDS011;64595;50.148;14.334;2024-01-30T11:52:03;43.55;;;19.55;;
75916;SDS011;64595;50.148;14.334;2024-01-30T11:54:29;42.15;;;20.17;;
75916;SDS011;64595;50.148;14.334;2024-01-30T11:56:55;41.50;;;19.45;;
75916;SDS011;64595;50.148;14.334;2024-01-30T11:59:22;42.40;;;21.02;;
75916;SDS011;64595;50.148;14.334;2024-01-30T12:01:48;45.30;;;23.25;;
75916;SDS011;64595;50.148;14.334;2024-01-30T12:04:14;35.35;;;18.25;;
75916;SDS011;64595;50.148;14.334;2024-01-30T12:06:40;47.55;;;21.63;;
75916;SDS011;64595;50.148;14.334;2024-01-30T12:09:06;47.30;;;22.15;;
75916;SDS011;64595;50.148;14.334;2024-01-30T12:11:32;39.78;;;19.05;;
75916;SDS011;64595;50.148;14.334;2024-01-30T12:13:57;37.08;;;19.10;;
75916;SDS011;64595;50.148;14.334;2024-01-30T12:16:24;39.03;;;19.40;;
75916;SDS011;64595;50.148;14.334;2024-01-30T12:18:58;42.45;;;20.15;;
75916;SDS011;64595;50.148;14.334;2024-01-30T12:23:49;41.50;;;18.97;;
75916;SDS011;64595;50.148;14.334;2024-01-30T12:26:15;45.67;;;22.60;;
75916;SDS011;64595;50.148;14.334;2024-01-30T12:28:47;49.60;;;20.73;;
75916;SDS011;64595;50.148;14.334;2024-01-30T12:31:13;46.33;;;20.42;;
75916;SDS011;64595;50.148;14.334;2024-01-30T12:33:39;41.20;;;20.33;;
75916;SDS011;64595;50.148;14.334;2024-01-30T12:36:05;48.35;;;23.83;;
75916;SDS011;64595;50.148;14.334;2024-01-30T12:38:31;42.33;;;20.73;;
75916;SDS011;64595;50.148;14.334;2024-01-30T12:40:56;43.67;;;20.45;;
75916;SDS011;64595;50.148;14.334;2024-01-30T12:43:22;42.97;;;20.77;;
75916;SDS011;64595;50.148;14.334;2024-01-30T12:45:47;42.13;;;21.50;;
75916;SDS011;64595;50.148;14.334;2024-01-30T12:48:13;41.10;;;19.95;;
75916;SDS011;64595;50.148;14.334;2024-01-30T12:50:40;43.42;;;19.90;;
75916;SDS011;64595;50.148;14.334;2024-01-30T12:53:05;43.58;;;20.73;;
75916;SDS011;64595;50.148;14.334;2024-01-30T12:55:31;42.30;;;20.83;;
75916;SDS011;64595;50.148;14.334;2024-01-30T12:57:56;37.15;;;18.88;;
75916;SDS011;64595;50.148;14.334;2024-01-30T13:00:22;41.17;;;21.42;;
75916;SDS011;64595;50.148;14.334;2024-01-30T13:02:47;44.65;;;20.83;;
75916;SDS011;64595;50.148;14.334;2024-01-30T13:05:13;41.83;;;19.35;;
75916;SDS011;64595;50.148;14.334;2024-01-30T13:07:48;38.83;;;18.08;;
75916;SDS011;64595;50.148;14.334;2024-01-30T13:10:14;41.88;;;20.88;;
75916;SDS011;64595;50.148;14.334;2024-01-30T13:12:39;41.08;;;20.35;;
75916;SDS011;64595;50.148;14.334;2024-01-30T13:15:05;45.60;;;20.23;;
75916;SDS011;64595;50.148;14.334;2024-01-30T13:17:31;41.33;;;19.83;;
75916;SDS011;64595;50.148;14.334;2024-01-30T13:19:56;38.78;;;19.10;;
75916;SDS011;64595;50.148;14.334;2024-01-30T13:22:23;44.00;;;21.90;;
75916;SDS011;64595;50.148;14.334;2024-01-30T13:24:50;46.67;;;22.15;;
75916;SDS011;64595;50.148;14.334;2024-01-30T13:27:15;45.08;;;21.83;;
75916;SDS011;64595;50.148;14.334;2024-01-30T13:29:41;52.22;;;22.20;;
75916;SDS011;64595;50.148;14.334;2024-01-30T13:32:06;44.95;;;20.77;;
75916;SDS011;64595;50.148;14.334;2024-01-30T13:34:32;49.42;;;22.13;;
75916;SDS011;64595;50.148;14.334;2024-01-30T13:36:57;43.60;;;20.83;;
75916;SDS011;64595;50.148;14.334;2024-01-30T13:39:23;45.58;;;22.45;;
75916;SDS011;64595;50.148;14.334;2024-01-30T13:41:49;43.58;;;22.00;;
75916;SDS011;64595;50.148;14.334;2024-01-30T13:44:15;46.28;;;21.92;;
75916;SDS011;64595;50.148;14.334;2024-01-30T13:46:40;41.13;;;21.00;;
75916;SDS011;64595;50.148;14.334;2024-01-30T13:49:06;46.42;;;24.55;;
75916;SDS011;64595;50.148;14.334;2024-01-30T13:51:31;47.15;;;23.83;;
75916;SDS011;64595;50.148;14.334;2024-01-30T13:53:57;53.80;;;24.00;;
75916;SDS011;64595;50.148;14.334;2024-01-30T13:56:22;47.00;;;22.52;;
75916;SDS011;64595;50.148;14.334;2024-01-30T13:58:49;53.92;;;25.35;;
75916;SDS011;64595;50.148;14.334;2024-01-30T14:01:14;48.17;;;24.33;;
75916;SDS011;64595;50.148;14.334;2024-01-30T14:03:40;48.60;;;24.60;;
75916;SDS011;64595;50.148;14.334;2024-01-30T14:06:05;63.85;;;31.38;;
75916;SDS011;64595;50.148;14.334;2024-01-30T14:08:31;51.58;;;25.33;;